createdAt,value
2023-03-29T00:00:24.247Z,2.45
2023-03-29T00:01:35.371Z,2.47
2023-03-29T00:02:24.300Z,2.48
2023-03-29T00:03:24.306Z,2.49
2023-03-29T00:04:24.352Z,2.49
2023-03-29T00:05:24.199Z,2.50
2023-03-29T00:06:24.185Z,2.48
2023-03-29T00:07:23.185Z,2.54
2023-03-29T00:08:24.187Z,2.52
2023-03-29T00:09:24.168Z,2.46
2023-03-29T00:10:24.255Z,2.48
2023-03-29T00:11:24.159Z,2.51
2023-03-29T00:12:24.157Z,2.52
2023-03-29T00:13:24.147Z,2.53
2023-03-29T00:14:23.129Z,2.45
2023-03-29T00:15:24.130Z,2.43
2023-03-29T00:16:24.169Z,2.41
2023-03-29T00:17:24.133Z,2.48
2023-03-29T00:18:23.109Z,2.37
2023-03-29T00:19:24.105Z,2.40
2023-03-29T00:20:24.101Z,2.42
2023-03-29T00:21:24.119Z,2.44
2023-03-29T00:22:23.086Z,2.44
2023-03-29T00:23:24.082Z,2.42
2023-03-29T00:24:24.064Z,2.41
2023-03-29T00:25:24.082Z,2.44
2023-03-29T00:26:24.066Z,2.45
2023-03-29T00:27:24.071Z,2.45
2023-03-29T00:28:24.049Z,2.40
2023-03-29T00:29:24.045Z,2.40
2023-03-29T00:30:24.043Z,2.35
2023-03-29T00:31:24.045Z,2.43
2023-03-29T00:32:24.070Z,2.35
2023-03-29T00:33:24.020Z,2.43
2023-03-29T00:34:24.025Z,2.42
2023-03-29T00:35:24.011Z,2.38
2023-03-29T00:36:24.004Z,2.42
2023-03-29T00:37:23.992Z,2.44
2023-03-29T00:38:23.991Z,2.42
2023-03-29T00:39:23.961Z,2.40
2023-03-29T00:40:23.973Z,2.37
2023-03-29T00:41:23.950Z,2.43
2023-03-29T00:42:23.965Z,2.36
2023-03-29T00:43:23.946Z,2.36
2023-03-29T00:44:24.055Z,2.32
2023-03-29T00:45:23.995Z,2.35
2023-03-29T00:46:24.108Z,2.38
2023-03-29T00:47:23.073Z,2.32
2023-03-29T00:48:24.115Z,2.32
2023-03-29T00:49:23.142Z,2.31
2023-03-29T00:50:24.143Z,2.34
2023-03-29T00:51:23.178Z,2.32
2023-03-29T00:52:24.222Z,2.32
2023-03-29T00:53:24.256Z,2.32
2023-03-29T00:54:23.275Z,2.35
2023-03-29T00:55:24.300Z,2.31
2023-03-29T00:56:24.339Z,2.34
2023-03-29T00:57:26.464Z,2.37
2023-03-29T00:58:24.383Z,2.37
2023-03-29T00:59:24.362Z,2.38
2023-03-29T01:00:24.353Z,2.38
2023-03-29T01:01:24.366Z,2.36
2023-03-29T01:02:24.354Z,2.35
2023-03-29T01:03:24.385Z,2.38
2023-03-29T01:04:24.352Z,2.37
2023-03-29T01:05:24.329Z,2.30
2023-03-29T01:06:24.307Z,2.33
2023-03-29T01:07:24.323Z,2.32
2023-03-29T01:08:24.307Z,2.37
2023-03-29T01:09:24.283Z,2.38
2023-03-29T01:10:24.272Z,2.26
2023-03-29T01:11:24.264Z,2.29
2023-03-29T01:12:24.275Z,2.30
2023-03-29T01:13:24.284Z,2.36
2023-03-29T01:14:24.257Z,2.34
2023-03-29T01:15:23.254Z,2.27
2023-03-29T01:16:24.306Z,2.38
2023-03-29T01:17:24.258Z,2.28
2023-03-29T01:18:24.234Z,2.32
2023-03-29T01:19:24.229Z,2.31
2023-03-29T01:20:24.232Z,2.35
2023-03-29T01:21:24.200Z,2.27
2023-03-29T01:22:24.196Z,2.26
2023-03-29T01:23:23.185Z,2.28
2023-03-29T01:24:24.176Z,2.27
2023-03-29T01:25:23.167Z,2.32
2023-03-29T01:26:24.174Z,2.33
2023-03-29T01:27:24.166Z,2.35
2023-03-29T01:28:24.137Z,2.32
2023-03-29T01:29:24.148Z,2.28
2023-03-29T01:30:24.201Z,2.28
2023-03-29T01:31:24.273Z,2.30
2023-03-29T01:32:24.324Z,2.26
2023-03-29T01:33:23.354Z,2.31
2023-03-29T01:34:24.376Z,2.29
2023-03-29T01:35:24.427Z,2.27
2023-03-29T01:36:23.476Z,2.25
2023-03-29T01:37:24.492Z,2.25
2023-03-29T01:38:24.545Z,2.23
2023-03-29T01:39:23.577Z,2.26
2023-03-29T01:40:24.633Z,2.23
2023-03-29T01:41:23.676Z,2.27
2023-03-29T01:42:23.703Z,2.26
2023-03-29T01:43:24.751Z,2.26
2023-03-29T01:44:24.825Z,2.21
2023-03-29T01:45:23.857Z,2.25
2023-03-29T01:46:24.988Z,2.19
2023-03-29T01:47:24.967Z,2.23
2023-03-29T01:48:25.005Z,2.20
2023-03-29T01:49:25.026Z,2.19
2023-03-29T01:50:25.080Z,2.15
2023-03-29T01:51:24.095Z,2.19
2023-03-29T01:52:25.142Z,2.15
2023-03-29T01:53:25.150Z,2.23
2023-03-29T01:54:25.186Z,2.36
2023-03-29T01:55:25.210Z,2.55
2023-03-29T01:56:25.264Z,2.54
2023-03-29T01:57:25.447Z,2.53
2023-03-29T01:58:25.330Z,2.63
2023-03-29T01:59:25.352Z,2.72
2023-03-29T02:00:25.411Z,2.80
2023-03-29T02:01:24.470Z,2.77
2023-03-29T02:02:25.477Z,2.83
2023-03-29T02:03:25.574Z,2.79
2023-03-29T02:04:24.540Z,2.93
2023-03-29T02:05:25.547Z,2.70
2023-03-29T02:06:25.580Z,2.61
2023-03-29T02:07:25.601Z,2.52
2023-03-29T02:08:25.654Z,2.40
2023-03-29T02:09:25.623Z,2.33
2023-03-29T02:10:24.641Z,2.28
2023-03-29T02:11:25.640Z,2.23
2023-03-29T02:12:25.649Z,2.28
2023-03-29T02:13:25.650Z,2.26
2023-03-29T02:14:24.678Z,2.20
2023-03-29T02:15:25.702Z,2.12
2023-03-29T02:16:25.640Z,2.11
2023-03-29T02:17:24.712Z,2.09
2023-03-29T02:18:25.651Z,2.02
2023-03-29T02:19:25.667Z,2.04
2023-03-29T02:20:25.686Z,2.05
2023-03-29T02:21:25.698Z,2.00
2023-03-29T02:22:25.739Z,1.96
2023-03-29T02:23:25.767Z,1.98
2023-03-29T02:24:25.806Z,1.94
2023-03-29T02:25:25.803Z,1.91
2023-03-29T02:26:25.883Z,1.92
2023-03-29T02:27:25.895Z,1.92
2023-03-29T02:28:25.941Z,1.87
2023-03-29T02:29:24.996Z,1.88
2023-03-29T02:30:26.060Z,1.86
2023-03-29T02:31:26.221Z,1.86
2023-03-29T02:32:26.267Z,1.84
2023-03-29T02:33:26.273Z,1.82
2023-03-29T02:34:26.327Z,1.83
2023-03-29T02:35:25.381Z,1.83
2023-03-29T02:36:26.423Z,1.79
2023-03-29T02:37:26.517Z,1.80
2023-03-29T02:38:26.531Z,1.80
2023-03-29T02:39:26.591Z,1.81
2023-03-29T02:40:26.676Z,1.76
2023-03-29T02:41:26.703Z,1.76
2023-03-29T02:42:26.792Z,1.77
2023-03-29T02:43:26.136Z,1.80
2023-03-29T02:44:26.843Z,1.76
2023-03-29T02:45:26.911Z,1.72
2023-03-29T02:46:26.994Z,1.73
2023-03-29T02:47:26.026Z,1.71
2023-03-29T02:48:27.054Z,1.71
2023-03-29T02:49:26.090Z,1.73
2023-03-29T02:50:27.148Z,1.72
2023-03-29T02:51:27.181Z,1.73
2023-03-29T02:52:27.210Z,1.70
2023-03-29T02:53:27.261Z,1.67
2023-03-29T02:54:27.317Z,1.68
2023-03-29T02:55:27.350Z,1.65
2023-03-29T02:56:27.421Z,1.67
2023-03-29T02:57:27.429Z,1.69
2023-03-29T02:58:27.464Z,1.69
2023-03-29T02:59:27.501Z,1.65
2023-03-29T03:00:26.560Z,1.67
2023-03-29T03:01:27.638Z,1.65
2023-03-29T03:02:26.653Z,1.64
2023-03-29T03:03:27.813Z,1.65
2023-03-29T03:04:26.735Z,1.65
2023-03-29T03:05:27.766Z,1.63
2023-03-29T03:06:27.806Z,1.62
2023-03-29T03:07:27.843Z,1.62
2023-03-29T03:08:27.895Z,1.65
2023-03-29T03:09:27.924Z,1.63
2023-03-29T03:10:27.981Z,1.65
2023-03-29T03:11:27.998Z,1.66
2023-03-29T03:12:28.069Z,1.65
2023-03-29T03:13:27.080Z,1.65
2023-03-29T03:14:27.081Z,1.65
2023-03-29T03:15:28.114Z,1.66
2023-03-29T03:16:28.191Z,1.66
2023-03-29T03:17:27.200Z,1.64
2023-03-29T03:18:28.201Z,1.63
2023-03-29T03:19:28.228Z,1.68
2023-03-29T03:20:28.261Z,1.68
2023-03-29T03:21:28.335Z,1.62
2023-03-29T03:22:28.337Z,1.63
2023-03-29T03:23:28.364Z,1.63
2023-03-29T03:24:28.397Z,1.65
2023-03-29T03:25:28.443Z,1.63
2023-03-29T03:26:28.479Z,1.76
2023-03-29T03:27:28.522Z,1.74
2023-03-29T03:28:28.579Z,1.66
2023-03-29T03:29:27.604Z,1.66
2023-03-29T03:30:27.649Z,1.68
2023-03-29T03:31:28.743Z,1.65
2023-03-29T03:32:28.743Z,1.63
2023-03-29T03:33:28.765Z,1.63
2023-03-29T03:34:27.800Z,1.63
2023-03-29T03:35:28.871Z,1.64
2023-03-29T03:36:28.865Z,1.62
2023-03-29T03:37:28.894Z,1.61
2023-03-29T03:38:28.946Z,1.61
2023-03-29T03:39:28.998Z,1.63
2023-03-29T03:40:29.058Z,1.63
2023-03-29T03:41:29.069Z,1.62
2023-03-29T03:42:28.129Z,1.59
2023-03-29T03:43:28.147Z,1.61
2023-03-29T03:44:29.216Z,1.60
2023-03-29T03:45:29.266Z,1.60
2023-03-29T03:46:29.576Z,1.54
2023-03-29T03:47:29.427Z,1.60
2023-03-29T03:48:29.371Z,1.60
2023-03-29T03:49:28.397Z,1.62
2023-03-29T03:50:29.465Z,1.67
2023-03-29T03:51:29.480Z,1.65
2023-03-29T03:52:30.034Z,1.62
2023-03-29T03:53:29.570Z,1.63
2023-03-29T03:54:29.609Z,1.63
2023-03-29T03:55:29.674Z,1.61
2023-03-29T03:56:29.706Z,1.61
2023-03-29T03:57:29.775Z,1.61
2023-03-29T03:58:29.799Z,1.64
2023-03-29T03:59:30.287Z,1.64
2023-03-29T04:00:29.932Z,1.62
2023-03-29T04:01:29.937Z,1.60
2023-03-29T04:02:29.023Z,1.67
2023-03-29T04:03:29.095Z,1.61
2023-03-29T04:04:30.106Z,1.69
2023-03-29T04:05:30.184Z,1.69
2023-03-29T04:06:30.172Z,1.76
2023-03-29T04:07:30.229Z,1.78
2023-03-29T04:08:30.270Z,1.71
2023-03-29T04:09:30.316Z,1.69
2023-03-29T04:10:30.459Z,1.80
2023-03-29T04:11:30.449Z,1.71
2023-03-29T04:12:29.484Z,1.70
2023-03-29T04:13:30.526Z,1.82
2023-03-29T04:14:30.568Z,1.79
2023-03-29T04:15:29.643Z,1.88
2023-03-29T04:16:30.882Z,1.86
2023-03-29T04:17:30.807Z,1.94
2023-03-29T04:18:30.875Z,2.00
2023-03-29T04:19:30.847Z,1.98
2023-03-29T04:20:29.907Z,2.08
2023-03-29T04:21:30.966Z,1.93
2023-03-29T04:22:31.007Z,1.97
2023-03-29T04:23:31.104Z,2.11
2023-03-29T04:24:31.124Z,2.00
2023-03-29T04:25:31.179Z,1.95
2023-03-29T04:26:31.251Z,1.92
2023-03-29T04:27:31.289Z,1.83
2023-03-29T04:28:31.361Z,1.81
2023-03-29T04:29:30.407Z,1.76
2023-03-29T04:30:30.457Z,1.77
2023-03-29T04:31:31.576Z,1.83
2023-03-29T04:32:31.660Z,1.80
2023-03-29T04:33:31.668Z,1.81
2023-03-29T04:34:31.678Z,1.88
2023-03-29T04:35:31.863Z,1.93
2023-03-29T04:36:31.787Z,1.85
2023-03-29T04:37:31.828Z,1.81
2023-03-29T04:38:31.885Z,1.95
2023-03-29T04:39:32.076Z,1.88
2023-03-29T04:40:31.007Z,1.79
2023-03-29T04:41:31.048Z,1.81
2023-03-29T04:42:32.102Z,1.80
2023-03-29T04:43:32.151Z,1.82
2023-03-29T04:44:31.227Z,1.79
2023-03-29T04:45:31.255Z,1.78
2023-03-29T04:46:32.477Z,1.74
2023-03-29T04:47:32.379Z,1.74
2023-03-29T04:48:32.434Z,1.73
2023-03-29T04:49:31.461Z,1.67
2023-03-29T04:50:32.502Z,1.74
2023-03-29T04:51:32.564Z,1.72
2023-03-29T04:52:32.604Z,1.71
2023-03-29T04:53:31.652Z,1.76
2023-03-29T04:54:32.706Z,1.75
2023-03-29T04:55:32.757Z,1.71
2023-03-29T04:56:32.795Z,1.67
2023-03-29T04:57:32.850Z,1.69
2023-03-29T04:58:32.987Z,1.73
2023-03-29T04:59:32.924Z,1.68
2023-03-29T05:00:32.956Z,1.66
2023-03-29T05:01:33.062Z,1.68
2023-03-29T05:02:33.083Z,1.64
2023-03-29T05:03:33.109Z,1.62
2023-03-29T05:04:33.286Z,1.62
2023-03-29T05:10:32.394Z,1.75
2023-03-29T05:11:33.447Z,1.79
2023-03-29T05:12:33.478Z,1.77
2023-03-29T05:14:32.599Z,1.72
2023-03-29T05:15:33.646Z,1.77
2023-03-29T05:21:32.905Z,1.73
2023-03-29T05:22:33.947Z,1.73
2023-03-29T05:23:33.998Z,1.74
2023-03-29T05:24:34.044Z,1.81
2023-03-29T05:25:34.088Z,1.80
2023-03-29T05:26:34.190Z,1.73
2023-03-29T05:27:34.197Z,1.80
2023-03-29T05:28:34.257Z,1.79
2023-03-29T05:29:34.300Z,1.86
2023-03-29T05:34:33.570Z,1.98
2023-03-29T05:35:34.642Z,2.04
2023-03-29T05:38:33.781Z,2.25
2023-03-29T05:39:37.573Z,2.30
2023-03-29T05:42:33.760Z,2.56
2023-03-29T05:43:34.774Z,2.64
2023-03-29T05:44:34.748Z,2.32
2023-03-29T05:47:33.757Z,2.53
2023-03-29T05:48:34.740Z,2.28
2023-03-29T05:51:34.161Z,2.28
2023-03-29T05:52:34.736Z,2.35
2023-03-29T05:57:33.777Z,2.87
2023-03-29T05:58:34.666Z,2.63
2023-03-29T05:59:34.647Z,2.50
2023-03-29T06:00:37.891Z,2.40
2023-03-29T06:02:33.738Z,2.43
2023-03-29T06:03:34.774Z,2.48
2023-03-29T06:05:34.643Z,2.42
2023-03-29T06:06:34.644Z,2.49
2023-03-29T06:08:33.627Z,2.74
2023-03-29T06:09:34.610Z,2.97
2023-03-29T06:10:34.624Z,3.10
2023-03-29T06:12:33.883Z,3.43
2023-03-29T06:13:34.638Z,3.42
2023-03-29T06:14:34.581Z,3.51
2023-03-29T06:15:34.550Z,3.64
2023-03-29T06:16:34.607Z,3.78
2023-03-29T06:18:33.522Z,3.78
2023-03-29T06:19:33.916Z,3.93
2023-03-29T06:20:33.727Z,4.18
2023-03-29T06:21:34.550Z,4.30
2023-03-29T06:22:34.524Z,4.65
2023-03-29T06:23:34.672Z,4.70
2023-03-29T06:24:34.509Z,4.98
2023-03-29T06:28:33.463Z,5.04
2023-03-29T06:29:34.522Z,5.84
2023-03-29T06:30:34.438Z,5.75
2023-03-29T06:32:33.455Z,6.43
2023-03-29T06:33:34.480Z,6.58
2023-03-29T06:34:36.632Z,6.43
2023-03-29T06:35:34.521Z,6.45
2023-03-29T06:36:34.448Z,6.53
2023-03-29T06:37:34.383Z,6.75
2023-03-29T06:41:33.414Z,7.27
2023-03-29T06:42:35.202Z,7.43
2023-03-29T06:43:34.735Z,7.76
2023-03-29T06:44:34.456Z,7.77
2023-03-29T06:45:34.455Z,8.29
2023-03-29T06:46:34.469Z,8.77
2023-03-29T06:47:34.698Z,8.58
2023-03-29T06:49:33.309Z,8.54
2023-03-29T06:50:34.324Z,9.71
2023-03-29T06:54:33.274Z,6.06
2023-03-29T06:55:33.601Z,3.23
2023-03-29T06:56:34.308Z,3.75
2023-03-29T06:57:34.711Z,4.44
2023-03-29T06:58:34.395Z,4.92
2023-03-29T06:59:34.447Z,5.66
2023-03-29T07:00:33.295Z,5.80
2023-03-29T07:01:34.369Z,6.49
2023-03-29T07:02:34.380Z,6.91
2023-03-29T07:03:34.412Z,6.55
2023-03-29T07:04:34.459Z,6.24
2023-03-29T07:06:33.423Z,6.98
2023-03-29T07:07:34.506Z,7.27
2023-03-29T07:08:34.436Z,7.18
2023-03-29T07:09:34.463Z,7.09
2023-03-29T07:10:34.469Z,6.83
2023-03-29T07:12:33.554Z,7.24
2023-03-29T07:13:34.903Z,7.57
2023-03-29T07:14:34.884Z,7.54
2023-03-29T07:15:33.685Z,7.52
2023-03-29T07:16:34.900Z,7.92
2023-03-29T07:17:34.644Z,8.21
2023-03-29T07:18:34.674Z,9.01
2023-03-29T07:19:35.077Z,9.39
2023-03-29T07:20:34.870Z,9.58
2023-03-29T07:21:36.685Z,9.70
2023-03-29T07:22:34.950Z,9.72
2023-03-29T07:23:33.816Z,9.84
2023-03-29T07:24:34.815Z,10.03
2023-03-29T07:25:34.805Z,10.30
2023-03-29T07:28:33.836Z,10.09
2023-03-29T07:29:35.120Z,10.22
2023-03-29T07:30:34.804Z,10.74
2023-03-29T07:31:34.846Z,11.26
2023-03-29T07:32:34.874Z,11.22
2023-03-29T07:33:34.890Z,10.91
2023-03-29T07:37:33.754Z,11.83
2023-03-29T07:38:34.772Z,12.07
2023-03-29T07:39:34.737Z,12.20
2023-03-29T07:44:33.711Z,13.46
2023-03-29T07:45:34.771Z,13.84
2023-03-29T07:46:40.158Z,13.11
2023-03-29T07:48:33.984Z,13.18
2023-03-29T07:49:34.736Z,13.40
2023-03-29T07:53:33.606Z,13.47
2023-03-29T07:54:33.588Z,14.17
2023-03-29T07:55:34.570Z,14.74
2023-03-29T07:56:34.583Z,14.80
2023-03-29T07:57:34.596Z,14.74
2023-03-29T08:02:34.262Z,13.62
2023-03-29T08:03:34.534Z,13.45
2023-03-29T08:05:40.778Z,13.28
2023-03-29T08:06:34.505Z,13.29
2023-03-29T08:07:34.485Z,13.19
2023-03-29T08:08:34.479Z,12.76
2023-03-29T08:13:34.171Z,12.15
2023-03-29T08:14:38.191Z,12.08
2023-03-29T08:16:33.542Z,11.96
2023-03-29T08:17:34.446Z,11.77
2023-03-29T08:18:34.913Z,11.86
2023-03-29T08:21:33.439Z,11.45
2023-03-29T08:22:34.410Z,11.48
2023-03-29T08:23:34.378Z,11.25
2023-03-29T08:24:34.404Z,11.61
2023-03-29T08:27:33.341Z,10.97
2023-03-29T08:28:34.319Z,10.90
2023-03-29T08:29:34.399Z,10.98
2023-03-29T08:32:33.388Z,10.45
2023-03-29T08:34:33.276Z,10.37
2023-03-29T08:35:34.315Z,10.50
2023-03-29T08:37:33.742Z,10.09
2023-03-29T08:38:36.184Z,10.01
2023-03-29T08:43:33.315Z,9.57
2023-03-29T08:44:34.342Z,9.64
2023-03-29T08:45:34.277Z,9.37
2023-03-29T08:48:33.267Z,9.41
2023-03-29T08:49:33.221Z,9.24
2023-03-29T08:50:34.300Z,9.16
2023-03-29T08:54:33.223Z,8.74
2023-03-29T08:55:34.306Z,8.77
2023-03-29T08:59:33.250Z,8.56
2023-03-29T09:00:34.176Z,8.32
2023-03-29T09:04:33.276Z,7.74
2023-03-29T09:05:34.135Z,7.74
2023-03-29T09:09:33.139Z,7.38
2023-03-29T09:10:34.084Z,7.37
2023-03-29T09:11:34.086Z,7.35
2023-03-29T09:12:35.830Z,7.24
2023-03-29T09:15:33.077Z,7.18
2023-03-29T09:16:34.138Z,7.15
2023-03-29T09:17:34.075Z,7.10
2023-03-29T09:18:33.034Z,7.03
2023-03-29T09:19:34.046Z,6.98
2023-03-29T09:20:33.119Z,6.90
2023-03-29T09:21:34.043Z,6.71
2023-03-29T09:26:32.983Z,7.22
2023-03-29T09:27:33.978Z,7.16
2023-03-29T09:28:33.971Z,6.89
2023-03-29T09:30:32.978Z,6.69
2023-03-29T09:31:33.986Z,6.53
2023-03-29T09:34:32.935Z,7.02
2023-03-29T09:35:33.966Z,7.54
2023-03-29T09:36:32.993Z,7.32
2023-03-29T09:37:33.926Z,7.32
2023-03-29T09:39:32.892Z,7.41
2023-03-29T09:40:33.907Z,7.49
2023-03-29T09:41:33.906Z,7.01
2023-03-29T09:42:33.964Z,7.74
2023-03-29T09:46:32.854Z,6.33
2023-03-29T09:47:33.876Z,6.69
2023-03-29T09:48:33.232Z,6.41
2023-03-29T09:49:33.774Z,5.58
2023-03-29T09:50:33.969Z,4.63
2023-03-29T09:52:32.912Z,2.75
2023-03-29T09:53:34.281Z,2.31
2023-03-29T09:54:32.757Z,2.05
2023-03-29T09:55:33.783Z,1.80
2023-03-29T09:56:33.735Z,1.38
2023-03-29T09:57:33.744Z,1.29
2023-03-29T09:58:33.736Z,1.06
2023-03-29T10:02:32.708Z,0.94
2023-03-29T10:03:33.704Z,0.90
2023-03-29T10:04:33.749Z,0.83
2023-03-29T10:05:33.711Z,0.81
2023-03-29T10:06:33.712Z,0.78
2023-03-29T10:07:33.722Z,0.77
2023-03-29T10:08:33.792Z,0.71
2023-03-29T10:09:32.827Z,0.79
2023-03-29T10:10:33.811Z,0.96
2023-03-29T10:11:33.867Z,1.16
2023-03-29T10:12:32.877Z,1.21
2023-03-29T10:13:33.887Z,1.19
2023-03-29T10:16:33.077Z,1.32
2023-03-29T10:17:34.137Z,1.31
2023-03-29T10:18:34.137Z,1.36
2023-03-29T10:19:34.146Z,1.37
2023-03-29T10:20:34.189Z,1.44
2023-03-29T10:21:34.212Z,1.63
2023-03-29T10:22:34.199Z,1.77
2023-03-29T10:25:33.858Z,1.99
2023-03-29T10:26:33.237Z,2.08
2023-03-29T10:27:34.244Z,2.06
2023-03-29T10:28:34.385Z,2.15
2023-03-29T10:29:34.564Z,2.29
2023-03-29T10:30:34.534Z,2.35
2023-03-29T10:31:34.517Z,2.43
2023-03-29T10:32:34.560Z,2.65
2023-03-29T10:34:33.582Z,3.13
2023-03-29T10:35:34.825Z,3.15
2023-03-29T10:36:34.849Z,3.34
2023-03-29T10:37:35.074Z,3.67
2023-03-29T10:38:34.861Z,3.80
2023-03-29T10:40:33.942Z,3.81
2023-03-29T10:41:35.330Z,3.64
2023-03-29T10:42:35.195Z,3.76
2023-03-29T10:43:35.299Z,3.85
2023-03-29T10:44:36.884Z,3.90
2023-03-29T10:45:35.229Z,4.02
2023-03-29T10:46:37.017Z,4.29
2023-03-29T10:47:35.170Z,4.29
2023-03-29T10:49:34.099Z,4.18
2023-03-29T10:50:35.053Z,4.12
2023-03-29T10:51:35.354Z,4.09
2023-03-29T10:52:35.086Z,4.16
2023-03-29T10:53:35.219Z,4.08
2023-03-29T10:56:33.971Z,4.01
2023-03-29T10:57:34.978Z,4.06
2023-03-29T10:58:34.963Z,4.05
2023-03-29T11:00:33.907Z,4.28
2023-03-29T11:01:34.992Z,4.35
2023-03-29T11:02:35.035Z,4.35
2023-03-29T11:03:34.689Z,4.29
2023-03-29T11:04:34.881Z,4.52
2023-03-29T11:05:34.884Z,4.33
2023-03-29T11:06:34.871Z,4.38
2023-03-29T11:11:33.855Z,4.38
2023-03-29T11:12:34.824Z,4.52
2023-03-29T11:13:35.156Z,4.35
2023-03-29T11:15:34.257Z,4.43
2023-03-29T11:16:34.790Z,4.43
2023-03-29T11:19:33.797Z,4.62
2023-03-29T11:20:34.791Z,4.78
2023-03-29T11:21:34.792Z,4.70
2023-03-29T11:22:35.167Z,4.79
2023-03-29T11:24:34.072Z,4.93
2023-03-29T11:25:34.920Z,5.13
2023-03-29T11:26:34.719Z,5.04
2023-03-29T11:27:34.761Z,5.00
2023-03-29T11:28:34.758Z,5.14
2023-03-29T11:30:33.685Z,5.24
2023-03-29T11:31:35.919Z,5.14
2023-03-29T11:32:34.714Z,5.14
2023-03-29T11:35:33.663Z,5.29
2023-03-29T11:36:34.644Z,5.39
2023-03-29T11:37:35.311Z,5.41
2023-03-29T11:39:34.574Z,5.23
2023-03-29T11:40:35.570Z,5.09
2023-03-29T11:44:33.596Z,5.03
2023-03-29T11:45:34.570Z,5.06
2023-03-29T11:46:34.605Z,4.92
2023-03-29T11:50:36.029Z,4.90
2023-03-29T11:51:34.554Z,5.06
2023-03-29T11:52:34.535Z,5.10
2023-03-29T11:56:33.821Z,5.11
2023-03-29T11:57:34.476Z,4.89
2023-03-29T12:02:33.543Z,5.01
2023-03-29T12:03:34.595Z,4.99
2023-03-29T12:05:33.433Z,5.06
2023-03-29T12:06:34.420Z,4.77
2023-03-29T12:07:34.420Z,4.94
2023-03-29T12:09:33.410Z,3.23
2023-03-29T12:10:34.384Z,1.64
2023-03-29T12:11:34.387Z,0.98
2023-03-29T12:13:33.360Z,1.36
2023-03-29T12:14:34.370Z,0.97
2023-03-29T12:15:34.504Z,0.70
2023-03-29T12:16:34.415Z,0.56
2023-03-29T12:19:33.342Z,0.76
2023-03-29T12:20:34.327Z,0.68
2023-03-29T12:21:33.322Z,0.63
2023-03-29T12:22:34.302Z,0.65
2023-03-29T12:23:33.299Z,0.68
2023-03-29T12:24:34.295Z,0.79
2023-03-29T12:27:33.277Z,1.50
2023-03-29T12:28:34.268Z,1.77
2023-03-29T12:29:34.273Z,1.69
2023-03-29T12:34:33.272Z,2.11
2023-03-29T12:35:34.449Z,2.80
2023-03-29T12:36:34.370Z,4.54
2023-03-29T12:37:34.367Z,5.67
2023-03-29T12:38:34.377Z,6.21
2023-03-29T12:39:34.377Z,6.83
2023-03-29T12:41:33.381Z,6.50
2023-03-29T12:42:34.405Z,6.42
2023-03-29T12:44:33.504Z,7.72
2023-03-29T12:45:34.470Z,7.98
2023-03-29T12:46:34.610Z,4.21
2023-03-29T12:47:34.634Z,2.36
2023-03-29T12:50:33.659Z,0.69
2023-03-29T12:51:33.675Z,0.71
2023-03-29T12:52:33.683Z,0.71
2023-03-29T12:53:34.721Z,0.79
2023-03-29T12:54:34.769Z,0.96
2023-03-29T12:55:34.773Z,1.20
2023-03-29T12:56:34.765Z,1.42
2023-03-29T12:57:34.791Z,1.76
2023-03-29T12:58:34.852Z,2.03
2023-03-29T13:01:34.024Z,2.93
2023-03-29T13:02:35.043Z,2.74
2023-03-29T13:03:34.958Z,2.66
2023-03-29T13:04:35.047Z,2.74
2023-03-29T13:05:35.110Z,2.82
2023-03-29T13:06:35.118Z,2.85
2023-03-29T13:07:35.182Z,2.97
2023-03-29T13:08:35.220Z,3.08
2023-03-29T13:09:35.283Z,3.26
2023-03-29T13:10:35.281Z,3.74
2023-03-29T13:11:35.317Z,3.79
2023-03-29T13:12:35.350Z,3.92
2023-03-29T13:13:35.368Z,3.87
2023-03-29T13:14:35.415Z,3.59
2023-03-29T13:15:35.461Z,3.61
2023-03-29T13:18:34.419Z,3.83
2023-03-29T13:19:35.483Z,4.02
2023-03-29T13:22:34.404Z,5.17
2023-03-29T13:23:35.411Z,4.87
2023-03-29T13:24:35.426Z,4.58
2023-03-29T13:25:34.412Z,4.61
2023-03-29T13:26:35.427Z,4.60
2023-03-29T13:27:35.394Z,4.56
2023-03-29T13:29:34.456Z,4.58
2023-03-29T13:30:35.436Z,4.40
2023-03-29T13:31:35.495Z,4.33
2023-03-29T13:32:35.499Z,4.33
2023-03-29T13:33:35.506Z,4.33
2023-03-29T13:34:35.497Z,4.26
2023-03-29T13:35:35.610Z,4.23
2023-03-29T13:39:34.610Z,4.35
2023-03-29T13:40:35.587Z,4.29
2023-03-29T13:41:35.612Z,4.32
2023-03-29T13:45:34.653Z,4.45
2023-03-29T13:46:35.728Z,4.50
2023-03-29T13:47:35.735Z,4.67
2023-03-29T13:48:35.810Z,4.64
2023-03-29T13:50:34.717Z,5.38
2023-03-29T13:51:35.768Z,5.93
2023-03-29T13:53:34.736Z,6.13
2023-03-29T13:55:36.746Z,5.53
2023-03-29T13:56:35.718Z,5.40
2023-03-29T14:01:34.698Z,5.04
2023-03-29T14:02:36.760Z,5.22
2023-03-29T14:04:34.641Z,4.98
2023-03-29T14:05:35.641Z,5.11
2023-03-29T14:10:34.583Z,4.79
2023-03-29T14:11:35.576Z,4.84
2023-03-29T14:12:35.576Z,4.81
2023-03-29T14:14:38.583Z,4.61
2023-03-29T14:15:35.753Z,4.62
2023-03-29T14:18:34.747Z,4.61
2023-03-29T14:19:35.782Z,4.58
2023-03-29T14:20:35.764Z,4.52
2023-03-29T14:21:35.786Z,4.49
2023-03-29T14:22:35.784Z,4.48
2023-03-29T14:23:35.831Z,4.58
2023-03-29T14:24:35.792Z,4.51
2023-03-29T14:25:35.798Z,4.55
2023-03-29T14:26:35.808Z,4.45
2023-03-29T14:27:35.804Z,4.47
2023-03-29T14:28:35.828Z,4.43
2023-03-29T14:29:35.850Z,4.43
2023-03-29T14:30:35.878Z,4.37
2023-03-29T14:31:35.971Z,4.34
2023-03-29T14:32:35.954Z,4.32
2023-03-29T14:33:35.882Z,4.31
2023-03-29T14:34:35.906Z,4.29
2023-03-29T14:35:35.972Z,4.24
2023-03-29T14:36:36.031Z,4.24
2023-03-29T14:37:35.956Z,4.22
2023-03-29T14:38:35.962Z,4.33
2023-03-29T14:39:36.001Z,4.21
2023-03-29T14:40:36.018Z,4.27
2023-03-29T14:41:36.030Z,4.21
2023-03-29T14:42:36.046Z,4.15
2023-03-29T14:43:36.059Z,4.19
2023-03-29T14:44:36.085Z,4.13
2023-03-29T14:45:36.108Z,4.08
2023-03-29T14:46:36.171Z,4.15
2023-03-29T14:47:36.157Z,4.09
2023-03-29T14:48:36.146Z,4.12
2023-03-29T14:49:36.159Z,4.06
2023-03-29T14:51:35.178Z,4.03
2023-03-29T14:52:36.183Z,4.01
2023-03-29T14:53:36.185Z,4.04
2023-03-29T14:54:36.212Z,4.01
2023-03-29T14:55:36.237Z,3.99
2023-03-29T14:56:36.230Z,4.03
2023-03-29T14:57:36.262Z,3.98
2023-03-29T14:58:36.293Z,3.98
2023-03-29T14:59:36.312Z,3.87
2023-03-29T15:00:36.362Z,3.92
2023-03-29T15:01:36.436Z,3.90
2023-03-29T15:03:35.558Z,3.82
2023-03-29T15:04:36.527Z,3.83
2023-03-29T15:05:36.594Z,3.82
2023-03-29T15:06:36.651Z,3.73
2023-03-29T15:07:37.344Z,3.70
2023-03-29T15:12:35.985Z,3.65
2023-03-29T15:13:36.986Z,3.66
2023-03-29T15:14:37.038Z,3.67
2023-03-29T15:15:37.483Z,3.75
2023-03-29T15:16:37.153Z,3.72
2023-03-29T15:17:50.472Z,3.67
2023-03-29T15:18:37.193Z,3.68
2023-03-29T15:23:36.131Z,3.72
2023-03-29T15:24:37.126Z,3.67
2023-03-29T15:27:36.132Z,3.72
2023-03-29T15:28:37.092Z,3.70
2023-03-29T15:30:51.667Z,3.71
2023-03-29T15:31:37.197Z,3.73
2023-03-29T15:32:37.168Z,3.76
2023-03-29T15:33:37.244Z,3.76
2023-03-29T15:34:37.052Z,3.79
2023-03-29T15:35:37.100Z,3.77
2023-03-29T15:36:37.033Z,3.69
2023-03-29T15:37:37.056Z,3.72
2023-03-29T15:38:43.034Z,3.72
2023-03-29T15:39:37.125Z,3.72
2023-03-29T15:40:37.155Z,3.70
2023-03-29T15:41:36.088Z,3.72
2023-03-29T15:42:37.087Z,3.70
2023-03-29T15:43:37.088Z,3.77
2023-03-29T15:44:37.064Z,3.67
2023-03-29T15:45:37.055Z,3.69
2023-03-29T15:46:37.122Z,3.67
2023-03-29T15:47:36.172Z,3.64
2023-03-29T15:48:37.053Z,3.61
2023-03-29T15:49:37.051Z,3.66
2023-03-29T15:50:36.067Z,3.67
2023-03-29T15:51:37.083Z,3.57
2023-03-29T15:52:37.131Z,3.55
2023-03-29T15:53:37.188Z,3.55
2023-03-29T15:54:37.289Z,3.50
2023-03-29T15:55:37.288Z,3.59
2023-03-29T15:56:37.320Z,3.58
2023-03-29T15:57:37.460Z,3.50
2023-03-29T15:58:37.417Z,3.50
2023-03-29T15:59:37.517Z,3.52
2023-03-29T16:00:37.564Z,3.49
2023-03-29T16:01:37.897Z,3.47
2023-03-29T16:02:37.796Z,3.46
2023-03-29T16:03:37.655Z,3.51
2023-03-29T16:04:36.702Z,3.46
2023-03-29T16:05:36.769Z,3.47
2023-03-29T16:06:37.833Z,3.44
2023-03-29T16:07:37.874Z,3.50
2023-03-29T16:08:37.931Z,3.47
2023-03-29T16:09:37.979Z,3.45
2023-03-29T16:10:38.028Z,3.38
2023-03-29T16:11:37.107Z,3.46
2023-03-29T16:12:38.155Z,3.39
2023-03-29T16:13:38.268Z,3.41
2023-03-29T16:14:37.281Z,3.46
2023-03-29T16:15:37.363Z,3.43
2023-03-29T16:16:38.515Z,3.46
2023-03-29T16:17:38.533Z,3.33
2023-03-29T16:18:38.553Z,3.45
2023-03-29T16:19:38.677Z,3.42
2023-03-29T16:20:38.790Z,3.33
2023-03-29T16:21:39.293Z,3.33
2023-03-29T16:22:38.769Z,3.33
2023-03-29T16:23:37.817Z,3.30
2023-03-29T16:24:38.895Z,3.38
2023-03-29T16:25:39.256Z,3.33
2023-03-29T16:26:39.034Z,3.37
2023-03-29T16:27:39.075Z,3.32
2023-03-29T16:28:39.132Z,3.35
2023-03-29T16:29:39.454Z,3.32
2023-03-29T16:30:39.297Z,3.33
2023-03-29T16:31:39.490Z,3.33
2023-03-29T16:32:39.534Z,3.35
2023-03-29T16:33:39.458Z,3.34
2023-03-29T16:34:39.506Z,3.33
2023-03-29T16:35:39.593Z,3.34
2023-03-29T16:36:39.605Z,3.35
2023-03-29T16:37:39.661Z,3.27
2023-03-29T16:38:39.730Z,3.35
2023-03-29T16:39:39.777Z,3.26